createdAt,value
2022-11-20T00:01:24.859Z,9.57
2022-11-20T00:03:54.201Z,10.18
2022-11-20T00:06:22.512Z,9.90
2022-11-20T00:08:50.153Z,9.05
2022-11-20T00:11:20.067Z,10.25
2022-11-20T00:13:49.210Z,12.75
2022-11-20T00:16:19.073Z,11.48
2022-11-20T00:18:47.257Z,12.07
2022-11-20T00:21:22.705Z,10.63
2022-11-20T00:23:52.509Z,12.85
2022-11-20T00:26:21.971Z,12.52
2022-11-20T00:28:52.153Z,10.70
2022-11-20T00:31:19.944Z,11.38
2022-11-20T00:33:47.605Z,11.52
2022-11-20T00:36:17.946Z,10.98
2022-11-20T00:38:45.800Z,12.60
2022-11-20T00:41:16.126Z,11.63
2022-11-20T00:43:43.978Z,11.18
2022-11-20T00:46:16.570Z,10.93
2022-11-20T00:48:45.122Z,10.93
2022-11-20T00:51:14.363Z,9.63
2022-11-20T00:53:42.008Z,8.82
2022-11-20T00:56:16.167Z,8.95
2022-11-20T00:58:45.419Z,8.57
2022-11-20T01:01:15.306Z,7.78
2022-11-20T01:03:46.559Z,7.93
2022-11-20T01:06:17.722Z,7.65
2022-11-20T01:08:45.977Z,8.77
2022-11-20T01:11:19.865Z,8.20
2022-11-20T01:13:49.202Z,9.20
2022-11-20T01:16:22.890Z,10.75
2022-11-20T01:18:52.731Z,10.32
2022-11-20T01:21:23.042Z,9.60
2022-11-20T01:23:51.196Z,10.43
2022-11-20T01:26:24.652Z,9.40
2022-11-20T01:28:52.344Z,12.10
2022-11-20T01:31:20.752Z,9.93
2022-11-20T01:33:50.798Z,9.52
2022-11-20T01:36:19.590Z,10.05
2022-11-20T01:38:47.261Z,10.00
2022-11-20T01:41:36.120Z,9.88
2022-11-20T01:44:04.601Z,9.50
2022-11-20T01:46:33.584Z,9.45
2022-11-20T01:49:04.767Z,8.35
2022-11-20T01:52:13.881Z,8.98
2022-11-20T01:54:50.507Z,8.15
2022-11-20T01:57:19.171Z,8.98
2022-11-20T01:59:52.745Z,9.27
2022-11-20T02:02:21.771Z,10.03
2022-11-20T02:04:50.692Z,9.80
2022-11-20T02:07:18.630Z,9.60
2022-11-20T02:09:46.242Z,9.23
2022-11-20T02:12:33.988Z,10.27
2022-11-20T02:15:01.524Z,7.87
2022-11-20T02:17:29.198Z,9.07
2022-11-20T02:19:56.722Z,9.70
2022-11-20T02:22:32.523Z,10.13
2022-11-20T02:25:07.299Z,11.48
2022-11-20T02:27:34.828Z,10.68
2022-11-20T02:30:08.598Z,10.68
2022-11-20T02:32:37.629Z,12.75
2022-11-20T02:35:31.466Z,11.40
2022-11-20T02:38:03.283Z,12.30
2022-11-20T02:40:30.900Z,10.68
2022-11-20T02:42:58.580Z,10.35
2022-11-20T02:45:26.242Z,11.57
2022-11-20T02:47:53.910Z,11.45
2022-11-20T02:50:21.283Z,12.82
2022-11-20T02:52:48.679Z,13.30
2022-11-20T02:55:16.745Z,11.90
2022-11-20T02:57:44.331Z,14.18
2022-11-20T03:00:12.481Z,14.10
2022-11-20T03:02:40.124Z,15.00
2022-11-20T03:05:07.639Z,13.07
2022-11-20T03:07:35.043Z,13.98
2022-11-20T03:10:02.738Z,12.77
2022-11-20T03:12:30.279Z,11.90
2022-11-20T03:14:57.628Z,13.48
2022-11-20T03:17:25.239Z,12.55
2022-11-20T03:19:52.538Z,13.13
2022-11-20T03:22:19.893Z,12.07
2022-11-20T03:24:47.468Z,14.57
2022-11-20T03:27:14.783Z,13.48
2022-11-20T03:29:42.136Z,15.70
2022-11-20T03:32:09.691Z,14.38
2022-11-20T03:34:37.242Z,14.07
2022-11-20T03:37:04.559Z,12.90
2022-11-20T03:39:32.117Z,13.35
2022-11-20T03:41:59.457Z,12.43
2022-11-20T03:44:26.764Z,13.05
2022-11-20T03:46:54.604Z,13.43
2022-11-20T03:49:22.223Z,13.52
2022-11-20T03:51:49.700Z,13.80
2022-11-20T03:54:18.574Z,13.95
2022-11-20T03:56:45.884Z,12.70
2022-11-20T03:59:13.272Z,13.27
2022-11-20T04:01:45.440Z,13.43
2022-11-20T04:04:15.864Z,14.50
2022-11-20T04:06:43.183Z,12.45
2022-11-20T04:09:10.824Z,12.95
2022-11-20T04:11:40.832Z,13.98
2022-11-20T04:14:14.530Z,13.15
2022-11-20T04:16:42.458Z,12.55
2022-11-20T04:19:14.635Z,13.95
2022-11-20T04:21:43.215Z,13.23
2022-11-20T04:24:11.528Z,13.32
2022-11-20T04:26:39.184Z,13.32
2022-11-20T04:29:06.841Z,11.93
2022-11-20T04:31:35.540Z,12.70
2022-11-20T04:34:04.667Z,11.60
2022-11-20T04:36:32.939Z,11.02
2022-11-20T04:39:02.510Z,11.68
2022-11-20T04:41:32.627Z,12.93
2022-11-20T04:44:04.140Z,12.00
2022-11-20T04:46:34.636Z,12.25
2022-11-20T04:49:02.698Z,12.55
2022-11-20T04:51:30.135Z,10.70
2022-11-20T04:53:57.590Z,12.02
2022-11-20T04:56:25.303Z,13.60
2022-11-20T04:58:52.619Z,12.80
2022-11-20T05:01:22.124Z,11.98
2022-11-20T05:03:50.304Z,11.45
2022-11-20T05:09:04.740Z,12.77
2022-11-20T05:11:32.746Z,12.73
2022-11-20T05:14:00.931Z,12.25
2022-11-20T05:16:28.605Z,11.85
2022-11-20T05:18:56.247Z,11.73
2022-11-20T05:21:23.841Z,12.00
2022-11-20T05:23:51.413Z,13.18
2022-11-20T05:26:22.266Z,13.75
2022-11-20T05:28:50.279Z,13.13
2022-11-20T05:31:27.086Z,13.73
2022-11-20T05:33:56.850Z,12.25
2022-11-20T05:36:24.490Z,12.30
2022-11-20T05:38:55.516Z,12.88
2022-11-20T05:41:26.073Z,12.33
2022-11-20T05:43:53.464Z,12.77
2022-11-20T05:46:27.722Z,11.70
2022-11-20T05:48:57.013Z,12.52
2022-11-20T05:51:24.997Z,12.15
2022-11-20T05:53:52.315Z,11.90
2022-11-20T05:56:21.366Z,12.23
2022-11-20T05:58:48.977Z,11.75
2022-11-20T06:01:19.983Z,11.20
2022-11-20T06:03:48.735Z,12.35
2022-11-20T06:06:16.682Z,11.40
2022-11-20T06:08:44.611Z,10.73
2022-11-20T06:11:14.042Z,11.38
2022-11-20T06:13:43.013Z,12.30
2022-11-20T06:16:11.649Z,12.52
2022-11-20T06:18:39.682Z,12.32
2022-11-20T06:21:10.271Z,13.52
2022-11-20T06:23:37.892Z,14.43
2022-11-20T06:26:16.292Z,14.07
2022-11-20T06:28:43.708Z,13.25
2022-11-20T06:31:14.420Z,14.00
2022-11-20T06:33:42.908Z,15.07
2022-11-20T06:36:11.978Z,13.98
2022-11-20T06:38:39.928Z,14.55
2022-11-20T06:41:09.697Z,16.30
2022-11-20T06:43:37.286Z,13.68
2022-11-20T06:46:04.714Z,14.25
2022-11-20T06:48:32.143Z,14.85
2022-11-20T06:50:59.821Z,14.55
2022-11-20T06:53:27.202Z,14.65
2022-11-20T06:55:57.167Z,15.27
2022-11-20T06:58:27.659Z,14.10
2022-11-20T07:00:58.663Z,12.77
2022-11-20T07:03:26.328Z,13.20
2022-11-20T07:05:56.481Z,12.90
2022-11-20T07:08:24.007Z,12.55
2022-11-20T07:10:51.661Z,14.43
2022-11-20T07:13:18.998Z,14.30
2022-11-20T07:15:46.310Z,15.13
2022-11-20T07:18:13.915Z,14.80
2022-11-20T07:20:41.467Z,15.48
2022-11-20T07:23:08.914Z,13.85
2022-11-20T07:25:36.837Z,14.57
2022-11-20T07:28:04.741Z,12.93
2022-11-20T07:30:32.112Z,14.05
2022-11-20T07:32:59.712Z,13.13
2022-11-20T07:35:27.127Z,13.80
2022-11-20T07:37:54.513Z,14.93
2022-11-20T07:40:22.168Z,15.82
2022-11-20T07:42:53.447Z,15.18
2022-11-20T07:45:22.091Z,14.52
2022-11-20T07:47:49.747Z,13.93
2022-11-20T07:50:17.625Z,14.23
2022-11-20T07:52:45.155Z,13.65
2022-11-20T07:55:12.979Z,15.75
2022-11-20T07:57:40.401Z,14.45
2022-11-20T08:00:10.316Z,15.40
2022-11-20T08:02:40.463Z,14.87
2022-11-20T08:05:09.418Z,13.85
2022-11-20T08:07:41.104Z,13.60
2022-11-20T08:10:11.020Z,14.27
2022-11-20T08:13:04.198Z,13.90
2022-11-20T08:15:32.886Z,16.62
2022-11-20T08:21:05.067Z,14.70
2022-11-20T08:23:32.585Z,16.75
2022-11-20T08:25:59.941Z,15.95
2022-11-20T08:28:27.502Z,17.45
2022-11-20T08:30:59.751Z,16.40
2022-11-20T08:33:27.067Z,15.63
2022-11-20T08:35:54.648Z,15.40
2022-11-20T08:38:23.150Z,15.73
2022-11-20T08:41:10.382Z,15.38
2022-11-20T08:43:37.984Z,13.27
2022-11-20T08:46:05.419Z,13.55
2022-11-20T08:48:32.727Z,14.43
2022-11-20T08:51:00.544Z,14.02
2022-11-20T08:53:28.458Z,14.50
2022-11-20T08:55:57.832Z,14.55
2022-11-20T08:58:26.117Z,15.18
2022-11-20T09:00:54.102Z,15.75
2022-11-20T09:03:21.589Z,15.15
2022-11-20T09:05:49.235Z,14.32
2022-11-20T09:08:16.598Z,14.52
2022-11-20T09:10:43.977Z,14.80
2022-11-20T09:13:11.600Z,15.05
2022-11-20T09:15:38.924Z,14.07
2022-11-20T09:18:06.210Z,14.30
2022-11-20T09:20:33.908Z,12.90
2022-11-20T09:23:01.340Z,13.62
2022-11-20T09:25:28.727Z,14.73
2022-11-20T09:27:59.839Z,14.70
2022-11-20T09:30:28.374Z,16.27
2022-11-20T09:32:56.340Z,14.25
2022-11-20T09:35:23.832Z,16.85
2022-11-20T09:37:51.464Z,15.00
2022-11-20T09:40:28.043Z,16.12
2022-11-20T09:43:08.358Z,15.43
2022-11-20T09:45:59.413Z,19.23
2022-11-20T09:48:48.565Z,22.10
2022-11-20T09:51:43.858Z,15.57
2022-11-20T09:54:19.460Z,14.85
2022-11-20T09:57:00.787Z,14.55
2022-11-20T09:59:41.026Z,16.25
2022-11-20T10:02:17.805Z,14.87
2022-11-20T10:04:54.268Z,15.38
2022-11-20T10:07:33.315Z,13.70
2022-11-20T10:10:01.461Z,15.23
2022-11-20T10:12:56.861Z,14.63
2022-11-20T10:16:20.066Z,13.65
2022-11-20T10:18:53.758Z,14.60
2022-11-20T10:21:46.068Z,15.00
2022-11-20T10:24:38.055Z,14.80
2022-11-20T10:27:19.970Z,16.98
2022-11-20T10:29:50.360Z,14.57
2022-11-20T10:32:21.482Z,15.07
2022-11-20T10:34:55.149Z,14.68
2022-11-20T10:37:27.365Z,14.50
2022-11-20T10:40:18.622Z,13.90
2022-11-20T10:42:52.132Z,14.82
2022-11-20T10:45:25.333Z,15.68
2022-11-20T10:47:59.861Z,17.15
2022-11-20T10:50:27.802Z,14.52
2022-11-20T10:53:24.880Z,18.85
2022-11-20T10:55:57.488Z,13.82
2022-11-20T10:58:40.365Z,14.05
2022-11-20T11:01:16.807Z,14.87
2022-11-20T11:03:45.008Z,14.90
2022-11-20T11:06:31.217Z,17.20
2022-11-20T11:09:04.332Z,15.70
2022-11-20T11:11:33.892Z,22.17
2022-11-20T11:14:11.864Z,16.98
2022-11-20T11:16:53.685Z,16.55
2022-11-20T11:19:21.865Z,17.08
2022-11-20T11:21:55.634Z,19.67
2022-11-20T11:24:44.442Z,16.12
2022-11-20T11:27:17.264Z,16.50
2022-11-20T11:29:46.542Z,14.82
2022-11-20T11:32:20.002Z,15.75
2022-11-20T11:35:03.773Z,13.62
2022-11-20T11:37:36.810Z,16.55
2022-11-20T11:42:57.801Z,13.90
2022-11-20T11:45:25.717Z,13.93
2022-11-20T11:47:54.319Z,17.83
2022-11-20T11:50:27.066Z,15.27
2022-11-20T11:53:06.588Z,14.13
2022-11-20T11:55:41.170Z,17.35
2022-11-20T11:58:21.428Z,15.38
2022-11-20T12:00:57.088Z,16.33
2022-11-20T12:03:37.854Z,16.50
2022-11-20T12:06:14.610Z,16.05
2022-11-20T12:08:53.695Z,17.40
2022-11-20T12:11:32.508Z,17.55
2022-11-20T12:14:20.791Z,17.48
2022-11-20T12:16:48.158Z,17.60
2022-11-20T12:19:16.188Z,17.87
2022-11-20T12:22:01.391Z,16.52
2022-11-20T12:24:59.840Z,17.02
2022-11-20T12:27:48.384Z,18.12
2022-11-20T12:30:17.836Z,15.48
2022-11-20T12:33:13.870Z,16.48
2022-11-20T12:36:08.794Z,16.67
2022-11-20T12:38:46.884Z,17.92
2022-11-20T12:42:03.557Z,16.35
2022-11-20T12:48:02.441Z,16.83
2022-11-20T12:50:47.583Z,20.27
2022-11-20T12:53:34.568Z,24.37
2022-11-20T12:56:34.218Z,24.20
2022-11-20T12:59:19.624Z,15.43
2022-11-20T13:04:46.538Z,20.55
2022-11-20T13:07:16.177Z,22.80
2022-11-20T13:09:50.187Z,20.08
2022-11-20T13:12:37.809Z,17.95
2022-11-20T13:15:08.132Z,16.58
2022-11-20T13:17:41.880Z,16.62
2022-11-20T13:20:20.046Z,17.73
2022-11-20T13:22:49.258Z,14.95
2022-11-20T13:25:25.230Z,16.20
2022-11-20T13:27:53.407Z,17.50
2022-11-20T13:30:25.730Z,16.33
2022-11-20T13:32:58.000Z,18.00
2022-11-20T13:35:34.449Z,16.40
2022-11-20T13:38:03.585Z,17.23
2022-11-20T13:40:31.647Z,16.50
2022-11-20T13:43:10.169Z,16.85
2022-11-20T13:45:38.453Z,16.55
2022-11-20T13:48:22.366Z,15.35
2022-11-20T13:51:03.659Z,15.93
2022-11-20T13:53:54.010Z,16.75
2022-11-20T13:56:49.008Z,16.02
2022-11-20T13:59:34.023Z,15.35
2022-11-20T14:02:02.748Z,15.98
2022-11-20T14:04:34.867Z,14.87
2022-11-20T14:07:02.822Z,15.98
2022-11-20T14:09:33.059Z,15.93
2022-11-20T14:12:01.318Z,16.08
2022-11-20T14:14:30.649Z,15.70
2022-11-20T14:17:08.562Z,16.83
2022-11-20T14:19:38.264Z,20.02
2022-11-20T14:22:27.757Z,17.60
2022-11-20T14:25:06.417Z,27.23
2022-11-20T14:27:40.368Z,19.60
2022-11-20T14:30:19.759Z,25.08
2022-11-20T14:32:48.444Z,19.52
2022-11-20T14:35:23.265Z,17.65
2022-11-20T14:37:51.555Z,17.95
2022-11-20T14:40:38.111Z,19.40
2022-11-20T14:43:27.448Z,20.37
2022-11-20T14:46:05.394Z,19.20
2022-11-20T14:48:40.554Z,20.67
2022-11-20T14:51:11.614Z,18.87
2022-11-20T14:53:40.755Z,21.20
2022-11-20T14:56:09.674Z,25.62
2022-11-20T14:58:37.520Z,29.63
2022-11-20T15:01:08.596Z,47.53
2022-11-20T15:03:39.085Z,49.17
2022-11-20T15:06:09.312Z,57.58
2022-11-20T15:08:37.518Z,48.63
2022-11-20T15:11:19.407Z,48.80
2022-11-20T15:13:48.882Z,35.72
2022-11-20T15:16:22.038Z,24.20
2022-11-20T15:18:49.943Z,21.23
2022-11-20T15:21:19.786Z,21.33
2022-11-20T15:23:47.341Z,20.60
2022-11-20T15:26:25.621Z,22.05
2022-11-20T15:28:53.527Z,19.08
2022-11-20T15:31:24.016Z,18.70
2022-11-20T15:33:53.035Z,33.15
2022-11-20T15:36:21.267Z,24.35
2022-11-20T15:38:49.960Z,27.00
2022-11-20T15:41:17.835Z,63.53
2022-11-20T15:43:46.223Z,42.42
2022-11-20T15:46:18.246Z,19.73
2022-11-20T15:48:48.759Z,19.45
2022-11-20T15:51:35.900Z,20.20
2022-11-20T15:54:12.499Z,18.98
2022-11-20T15:56:40.338Z,19.92
2022-11-20T15:59:08.579Z,20.45
2022-11-20T16:01:37.758Z,22.37
2022-11-20T16:04:09.369Z,23.40
2022-11-20T16:06:37.159Z,22.62
2022-11-20T16:09:05.216Z,20.45
2022-11-20T16:11:33.654Z,22.60
2022-11-20T16:14:23.464Z,29.20
2022-11-20T16:16:52.476Z,43.65
2022-11-20T16:19:20.568Z,21.00
2022-11-20T16:21:48.550Z,22.70
2022-11-20T16:24:17.334Z,21.58
2022-11-20T16:26:45.296Z,22.50
2022-11-20T16:29:13.368Z,22.83
2022-11-20T16:31:41.594Z,29.85
2022-11-20T16:34:12.274Z,22.70
2022-11-20T16:36:41.750Z,21.75
2022-11-20T16:39:10.626Z,22.98
2022-11-20T16:41:38.108Z,22.55
2022-11-20T16:44:10.726Z,23.55
2022-11-20T16:46:44.124Z,24.15
2022-11-20T16:49:15.594Z,27.30
2022-11-20T16:51:43.918Z,35.35
2022-11-20T16:54:19.424Z,36.28
2022-11-20T16:56:49.374Z,26.20
2022-11-20T16:59:17.502Z,25.48
2022-11-20T17:01:45.537Z,23.17
2022-11-20T17:04:14.961Z,24.58
2022-11-20T17:06:48.169Z,26.55
2022-11-20T17:09:16.410Z,26.52
2022-11-20T17:11:43.868Z,28.70
2022-11-20T17:14:13.403Z,39.13
2022-11-20T17:16:41.997Z,29.35
2022-11-20T17:19:11.842Z,26.10
2022-11-20T17:21:40.098Z,27.20
2022-11-20T17:24:11.257Z,24.95
2022-11-20T17:26:41.216Z,25.85
2022-11-20T17:29:15.510Z,25.37
2022-11-20T17:31:43.950Z,25.77
2022-11-20T17:34:13.673Z,37.08
2022-11-20T17:36:45.786Z,52.10
2022-11-20T17:39:15.470Z,116.12
2022-11-20T17:41:43.481Z,63.75
2022-11-20T17:44:12.450Z,24.55
2022-11-20T17:46:41.095Z,25.00
2022-11-20T17:49:09.707Z,26.30
2022-11-20T17:51:37.702Z,24.27
2022-11-20T17:54:08.218Z,21.98
2022-11-20T17:56:54.971Z,21.77
2022-11-20T17:59:23.159Z,71.65
2022-11-20T18:01:50.742Z,53.10
2022-11-20T18:04:18.957Z,33.67
2022-11-20T18:06:46.965Z,32.08
2022-11-20T18:09:14.930Z,28.20
2022-11-20T18:11:43.618Z,28.95
2022-11-20T18:14:49.904Z,27.20
2022-11-20T18:17:18.922Z,27.02
2022-11-20T18:20:07.194Z,28.02
2022-11-20T18:22:38.563Z,26.40
2022-11-20T18:25:06.772Z,26.50
2022-11-20T18:27:34.961Z,79.47
2022-11-20T18:30:03.180Z,49.53
2022-11-20T18:32:31.585Z,31.48
2022-11-20T18:34:59.660Z,38.65
2022-11-20T18:37:29.030Z,35.67
2022-11-20T18:39:57.517Z,29.40
2022-11-20T18:42:44.142Z,26.98
2022-11-20T18:45:12.468Z,25.55
2022-11-20T18:47:40.182Z,23.67
2022-11-20T18:50:09.548Z,25.90
2022-11-20T18:52:44.937Z,28.33
2022-11-20T18:55:14.807Z,27.85
2022-11-20T18:57:43.503Z,26.87
2022-11-20T19:00:12.157Z,30.45
2022-11-20T19:02:42.763Z,51.63
2022-11-20T19:05:13.539Z,88.57
2022-11-20T19:07:42.289Z,41.88
2022-11-20T19:10:11.254Z,30.50
2022-11-20T19:12:39.690Z,27.35
2022-11-20T19:15:08.201Z,32.92
2022-11-20T19:17:37.453Z,99.60
2022-11-20T19:20:07.075Z,87.47
2022-11-20T19:22:38.271Z,34.90
2022-11-20T19:25:06.994Z,204.27
2022-11-20T19:27:35.048Z,52.08
2022-11-20T19:30:03.928Z,65.05
2022-11-20T19:32:32.957Z,52.22
2022-11-20T19:35:02.014Z,53.90
2022-11-20T19:37:33.163Z,51.40
2022-11-20T19:40:04.416Z,47.38
2022-11-20T19:42:32.751Z,40.70
2022-11-20T19:45:04.016Z,37.35
2022-11-20T19:48:00.601Z,35.97
2022-11-20T19:50:22.246Z,30.40
2022-11-20T19:52:53.145Z,26.70
2022-11-20T19:55:25.342Z,24.05
2022-11-20T19:57:53.849Z,24.77
2022-11-20T20:00:29.420Z,26.75
2022-11-20T20:03:01.311Z,25.75
2022-11-20T20:05:29.161Z,26.45
2022-11-20T20:07:57.939Z,26.70
2022-11-20T20:10:26.285Z,23.40
2022-11-20T20:12:55.313Z,25.00
2022-11-20T20:15:23.138Z,23.77
2022-11-20T20:17:54.428Z,22.70
2022-11-20T20:20:22.856Z,20.92
2022-11-20T20:22:51.994Z,23.45
2022-11-20T20:25:20.045Z,21.33
2022-11-20T20:27:48.094Z,21.55
2022-11-20T20:30:25.428Z,25.75
2022-11-20T20:32:56.290Z,34.85
2022-11-20T20:35:30.059Z,32.72
2022-11-20T20:37:59.029Z,32.70
2022-11-20T20:40:27.445Z,34.08
2022-11-20T20:42:55.403Z,34.38
2022-11-20T20:45:23.982Z,42.10
2022-11-20T20:47:52.187Z,44.92
2022-11-20T20:50:20.256Z,36.72
2022-11-20T20:52:48.823Z,31.65
2022-11-20T20:55:17.253Z,35.15
2022-11-20T20:57:44.952Z,33.55
2022-11-20T21:00:13.324Z,35.88
2022-11-20T21:02:42.351Z,34.83
2022-11-20T21:05:10.481Z,40.30
2022-11-20T21:07:58.293Z,39.05
2022-11-20T21:10:27.609Z,34.47
2022-11-20T21:12:55.133Z,32.17
2022-11-20T21:15:23.240Z,29.27
2022-11-20T21:17:51.175Z,31.25
2022-11-20T21:20:37.403Z,31.77
2022-11-20T21:23:09.489Z,32.92
2022-11-20T21:25:38.446Z,33.38
2022-11-20T21:28:07.332Z,30.27
2022-11-20T21:30:35.082Z,30.20
2022-11-20T21:33:02.693Z,28.92
2022-11-20T21:35:30.538Z,29.40
2022-11-20T21:37:58.036Z,29.02
2022-11-20T21:40:25.888Z,30.37
2022-11-20T21:42:54.279Z,29.55
2022-11-20T21:45:22.014Z,28.20
2022-11-20T21:47:50.380Z,27.90
2022-11-20T21:50:18.697Z,29.33
2022-11-20T21:52:46.085Z,27.73
2022-11-20T21:55:13.450Z,29.02
2022-11-20T21:57:41.058Z,32.70
2022-11-20T22:00:09.150Z,33.63
2022-11-20T22:02:40.282Z,33.53
2022-11-20T22:05:08.367Z,37.00
2022-11-20T22:07:35.898Z,32.88
2022-11-20T22:10:03.873Z,32.30
2022-11-20T22:12:31.538Z,30.23
2022-11-20T22:14:58.914Z,24.75
2022-11-20T22:17:44.737Z,23.52
2022-11-20T22:20:12.365Z,21.65
2022-11-20T22:22:40.151Z,22.13
2022-11-20T22:25:07.867Z,21.87
2022-11-20T22:27:35.565Z,21.90
2022-11-20T22:30:02.894Z,25.30
2022-11-20T22:32:30.272Z,18.92
2022-11-20T22:34:57.844Z,19.45
2022-11-20T22:37:25.173Z,23.67
2022-11-20T22:39:52.890Z,23.08
2022-11-20T22:42:20.524Z,22.52
2022-11-20T22:44:47.842Z,20.77
2022-11-20T22:47:15.183Z,23.95
2022-11-20T22:49:42.848Z,26.25
2022-11-20T22:52:10.160Z,29.73
2022-11-20T22:54:37.436Z,29.70
2022-11-20T22:57:05.007Z,24.65
2022-11-20T22:59:32.608Z,24.67
2022-11-20T23:02:00.068Z,22.92
2022-11-20T23:04:27.658Z,21.58
2022-11-20T23:06:54.998Z,21.60
2022-11-20T23:09:22.326Z,21.83
2022-11-20T23:11:49.912Z,19.60
2022-11-20T23:14:17.214Z,18.87
2022-11-20T23:16:44.517Z,17.30
2022-11-20T23:19:14.130Z,16.70
2022-11-20T23:21:42.855Z,15.93
2022-11-20T23:24:10.694Z,16.48
2022-11-20T23:26:40.149Z,17.90
2022-11-20T23:29:08.160Z,19.87
2022-11-20T23:31:36.065Z,21.25
2022-11-20T23:34:04.240Z,21.73
2022-11-20T23:36:31.923Z,20.02
2022-11-20T23:38:59.260Z,22.75
2022-11-20T23:41:26.872Z,22.25
2022-11-20T23:49:06.534Z,26.65
2022-11-20T23:51:33.856Z,26.77
2022-11-20T23:54:04.755Z,23.92
2022-11-20T23:56:32.545Z,26.70
2022-11-20T23:58:59.947Z,27.70
